sensor_id;sensor_type;location;lat;lon;timestamp;pressure;altitude;pressure_sealevel;temperature
8227;BMP180;4154;48.810;9.012;2023-12-20T00:01:26;97015.00;;;5.90
8227;BMP180;4154;48.810;9.012;2023-12-20T00:03:52;97018.00;;;5.90
8227;BMP180;4154;48.810;9.012;2023-12-20T00:06:17;97011.00;;;5.90
8227;BMP180;4154;48.810;9.012;2023-12-20T00:08:43;97016.00;;;5.90
8227;BMP180;4154;48.810;9.012;2023-12-20T00:11:10;97010.00;;;5.90
8227;BMP180;4154;48.810;9.012;2023-12-20T00:13:35;97013.00;;;5.90
8227;BMP180;4154;48.810;9.012;2023-12-20T00:16:01;97014.00;;;5.80
8227;BMP180;4154;48.810;9.012;2023-12-20T00:18:27;97004.00;;;5.80
8227;BMP180;4154;48.810;9.012;2023-12-20T00:20:52;96989.00;;;5.90
8227;BMP180;4154;48.810;9.012;2023-12-20T00:23:18;96989.00;;;5.90
8227;BMP180;4154;48.810;9.012;2023-12-20T00:25:44;97009.00;;;5.90
8227;BMP180;4154;48.810;9.012;2023-12-20T00:28:09;96980.00;;;5.90
8227;BMP180;4154;48.810;9.012;2023-12-20T00:30:35;96985.00;;;5.90
8227;BMP180;4154;48.810;9.012;2023-12-20T00:33:01;96982.00;;;5.80
8227;BMP180;4154;48.810;9.012;2023-12-20T00:35:27;96987.00;;;5.90
8227;BMP180;4154;48.810;9.012;2023-12-20T00:37:53;96987.00;;;5.90
8227;BMP180;4154;48.810;9.012;2023-12-20T00:40:19;96981.00;;;5.80
8227;BMP180;4154;48.810;9.012;2023-12-20T00:42:46;96996.00;;;5.80
8227;BMP180;4154;48.810;9.012;2023-12-20T00:45:12;97004.00;;;5.90
8227;BMP180;4154;48.810;9.012;2023-12-20T00:47:38;96982.00;;;5.80
8227;BMP180;4154;48.810;9.012;2023-12-20T00:50:04;96983.00;;;5.90
8227;BMP180;4154;48.810;9.012;2023-12-20T00:52:30;96992.00;;;5.80
8227;BMP180;4154;48.810;9.012;2023-12-20T00:54:56;96986.00;;;5.80
8227;BMP180;4154;48.810;9.012;2023-12-20T00:57:21;96992.00;;;5.90
8227;BMP180;4154;48.810;9.012;2023-12-20T00:59:47;96989.00;;;5.90
8227;BMP180;4154;48.810;9.012;2023-12-20T01:02:13;96996.00;;;5.90
8227;BMP180;4154;48.810;9.012;2023-12-20T01:04:38;96993.00;;;5.80
8227;BMP180;4154;48.810;9.012;2023-12-20T01:07:04;96986.00;;;5.70
8227;BMP180;4154;48.810;9.012;2023-12-20T01:09:30;96990.00;;;5.80
8227;BMP180;4154;48.810;9.012;2023-12-20T01:11:55;97000.00;;;5.80
8227;BMP180;4154;48.810;9.012;2023-12-20T01:14:21;96992.00;;;5.80
8227;BMP180;4154;48.810;9.012;2023-12-20T01:16:47;96983.00;;;5.80
8227;BMP180;4154;48.810;9.012;2023-12-20T01:19:13;96987.00;;;5.80
8227;BMP180;4154;48.810;9.012;2023-12-20T01:21:40;97000.00;;;5.80
8227;BMP180;4154;48.810;9.012;2023-12-20T01:24:05;96986.00;;;5.80
8227;BMP180;4154;48.810;9.012;2023-12-20T01:26:31;97006.00;;;5.80
8227;BMP180;4154;48.810;9.012;2023-12-20T01:28:57;96999.00;;;5.80
8227;BMP180;4154;48.810;9.012;2023-12-20T01:31:23;97004.00;;;5.80
8227;BMP180;4154;48.810;9.012;2023-12-20T01:33:48;96999.00;;;5.80
8227;BMP180;4154;48.810;9.012;2023-12-20T01:36:14;96993.00;;;5.80
8227;BMP180;4154;48.810;9.012;2023-12-20T01:38:40;97007.00;;;5.80
8227;BMP180;4154;48.810;9.012;2023-12-20T01:41:05;96998.00;;;5.80
8227;BMP180;4154;48.810;9.012;2023-12-20T01:43:31;96997.00;;;5.80
8227;BMP180;4154;48.810;9.012;2023-12-20T01:46:00;96996.00;;;5.90
8227;BMP180;4154;48.810;9.012;2023-12-20T01:48:27;96982.00;;;5.80
8227;BMP180;4154;48.810;9.012;2023-12-20T01:50:54;96976.00;;;5.80
8227;BMP180;4154;48.810;9.012;2023-12-20T01:53:23;96989.00;;;5.80
8227;BMP180;4154;48.810;9.012;2023-12-20T01:55:54;96987.00;;;5.80
8227;BMP180;4154;48.810;9.012;2023-12-20T01:58:21;96984.00;;;5.60
8227;BMP180;4154;48.810;9.012;2023-12-20T02:00:48;96987.00;;;5.80
8227;BMP180;4154;48.810;9.012;2023-12-20T02:03:14;96982.00;;;5.80
8227;BMP180;4154;48.810;9.012;2023-12-20T02:05:41;96989.00;;;5.80
8227;BMP180;4154;48.810;9.012;2023-12-20T02:08:07;96985.00;;;5.90
8227;BMP180;4154;48.810;9.012;2023-12-20T02:10:32;96993.00;;;6.00
8227;BMP180;4154;48.810;9.012;2023-12-20T02:12:58;96978.00;;;5.90
8227;BMP180;4154;48.810;9.012;2023-12-20T02:15:24;97005.00;;;6.00
8227;BMP180;4154;48.810;9.012;2023-12-20T02:17:50;96989.00;;;6.00
8227;BMP180;4154;48.810;9.012;2023-12-20T02:20:17;96992.00;;;6.00
8227;BMP180;4154;48.810;9.012;2023-12-20T02:22:42;96980.00;;;5.90
8227;BMP180;4154;48.810;9.012;2023-12-20T02:25:08;96997.00;;;5.90
8227;BMP180;4154;48.810;9.012;2023-12-20T02:27:35;96991.00;;;6.00
8227;BMP180;4154;48.810;9.012;2023-12-20T02:30:01;96988.00;;;6.00
8227;BMP180;4154;48.810;9.012;2023-12-20T02:32:27;96991.00;;;6.00
8227;BMP180;4154;48.810;9.012;2023-12-20T02:34:54;96986.00;;;5.90
8227;BMP180;4154;48.810;9.012;2023-12-20T02:37:20;96986.00;;;5.90
8227;BMP180;4154;48.810;9.012;2023-12-20T02:39:46;96989.00;;;5.90
8227;BMP180;4154;48.810;9.012;2023-12-20T02:42:11;97001.00;;;5.90
8227;BMP180;4154;48.810;9.012;2023-12-20T02:44:37;97006.00;;;6.00
8227;BMP180;4154;48.810;9.012;2023-12-20T02:47:03;96988.00;;;5.90
8227;BMP180;4154;48.810;9.012;2023-12-20T02:49:29;96986.00;;;5.90
8227;BMP180;4154;48.810;9.012;2023-12-20T02:51:54;97000.00;;;5.90
8227;BMP180;4154;48.810;9.012;2023-12-20T02:54:20;96990.00;;;5.80
8227;BMP180;4154;48.810;9.012;2023-12-20T02:56:47;97002.00;;;5.70
8227;BMP180;4154;48.810;9.012;2023-12-20T02:59:13;97003.00;;;5.70
8227;BMP180;4154;48.810;9.012;2023-12-20T03:01:44;96988.00;;;5.70
8227;BMP180;4154;48.810;9.012;2023-12-20T03:04:11;96993.00;;;5.60
8227;BMP180;4154;48.810;9.012;2023-12-20T03:06:37;96991.00;;;5.60
8227;BMP180;4154;48.810;9.012;2023-12-20T03:09:02;96996.00;;;5.50
8227;BMP180;4154;48.810;9.012;2023-12-20T03:11:28;97002.00;;;5.40
8227;BMP180;4154;48.810;9.012;2023-12-20T03:13:55;97002.00;;;5.40
8227;BMP180;4154;48.810;9.012;2023-12-20T03:16:21;97010.00;;;5.50
8227;BMP180;4154;48.810;9.012;2023-12-20T03:18:47;97001.00;;;5.50
8227;BMP180;4154;48.810;9.012;2023-12-20T03:21:12;97013.00;;;5.50
8227;BMP180;4154;48.810;9.012;2023-12-20T03:23:38;97010.00;;;5.50
8227;BMP180;4154;48.810;9.012;2023-12-20T03:26:07;97007.00;;;5.50
8227;BMP180;4154;48.810;9.012;2023-12-20T03:28:33;97007.00;;;5.40
8227;BMP180;4154;48.810;9.012;2023-12-20T03:30:59;97009.00;;;5.40
8227;BMP180;4154;48.810;9.012;2023-12-20T03:33:25;97008.00;;;5.30
8227;BMP180;4154;48.810;9.012;2023-12-20T03:35:51;96997.00;;;5.30
8227;BMP180;4154;48.810;9.012;2023-12-20T03:38:17;97009.00;;;5.20
8227;BMP180;4154;48.810;9.012;2023-12-20T03:40:42;97018.00;;;5.30
8227;BMP180;4154;48.810;9.012;2023-12-20T03:43:08;97011.00;;;5.40
8227;BMP180;4154;48.810;9.012;2023-12-20T03:45:33;97009.00;;;5.20
8227;BMP180;4154;48.810;9.012;2023-12-20T03:47:59;97018.00;;;5.20
8227;BMP180;4154;48.810;9.012;2023-12-20T03:50:26;97019.00;;;5.20
8227;BMP180;4154;48.810;9.012;2023-12-20T03:52:52;97020.00;;;5.10
8227;BMP180;4154;48.810;9.012;2023-12-20T03:55:18;97012.00;;;5.10
8227;BMP180;4154;48.810;9.012;2023-12-20T03:57:44;97011.00;;;5.00
8227;BMP180;4154;48.810;9.012;2023-12-20T04:00:10;97011.00;;;4.90
8227;BMP180;4154;48.810;9.012;2023-12-20T04:02:41;97010.00;;;5.10
8227;BMP180;4154;48.810;9.012;2023-12-20T04:05:09;97011.00;;;5.00
8227;BMP180;4154;48.810;9.012;2023-12-20T04:07:36;97024.00;;;5.00
8227;BMP180;4154;48.810;9.012;2023-12-20T04:10:02;97024.00;;;4.90
8227;BMP180;4154;48.810;9.012;2023-12-20T04:12:29;97017.00;;;5.00
8227;BMP180;4154;48.810;9.012;2023-12-20T04:14:56;97015.00;;;5.00
8227;BMP180;4154;48.810;9.012;2023-12-20T04:17:22;97022.00;;;5.00
8227;BMP180;4154;48.810;9.012;2023-12-20T04:19:51;97042.00;;;5.10
8227;BMP180;4154;48.810;9.012;2023-12-20T04:22:18;97040.00;;;5.00
8227;BMP180;4154;48.810;9.012;2023-12-20T04:24:44;97043.00;;;5.00
8227;BMP180;4154;48.810;9.012;2023-12-20T04:27:10;97036.00;;;5.20
8227;BMP180;4154;48.810;9.012;2023-12-20T04:29:36;97035.00;;;5.10
8227;BMP180;4154;48.810;9.012;2023-12-20T04:32:02;97042.00;;;5.00
8227;BMP180;4154;48.810;9.012;2023-12-20T04:34:28;97038.00;;;5.00
8227;BMP180;4154;48.810;9.012;2023-12-20T04:36:53;97039.00;;;5.00
8227;BMP180;4154;48.810;9.012;2023-12-20T04:39:19;97043.00;;;5.00
8227;BMP180;4154;48.810;9.012;2023-12-20T04:41:45;97054.00;;;5.10
8227;BMP180;4154;48.810;9.012;2023-12-20T04:44:13;97059.00;;;5.00
8227;BMP180;4154;48.810;9.012;2023-12-20T04:46:39;97050.00;;;5.10
8227;BMP180;4154;48.810;9.012;2023-12-20T04:49:05;97052.00;;;5.20
8227;BMP180;4154;48.810;9.012;2023-12-20T04:51:34;97054.00;;;5.20
8227;BMP180;4154;48.810;9.012;2023-12-20T04:54:00;97052.00;;;5.20
8227;BMP180;4154;48.810;9.012;2023-12-20T04:56:26;97057.00;;;5.20
8227;BMP180;4154;48.810;9.012;2023-12-20T04:58:52;97059.00;;;5.20
8227;BMP180;4154;48.810;9.012;2023-12-20T05:01:18;97070.00;;;5.10
8227;BMP180;4154;48.810;9.012;2023-12-20T05:03:43;97070.00;;;5.10
8227;BMP180;4154;48.810;9.012;2023-12-20T05:06:10;97083.00;;;5.10
8227;BMP180;4154;48.810;9.012;2023-12-20T05:08:36;97078.00;;;5.00
8227;BMP180;4154;48.810;9.012;2023-12-20T05:11:02;97077.00;;;5.10
8227;BMP180;4154;48.810;9.012;2023-12-20T05:13:28;97070.00;;;5.10
8227;BMP180;4154;48.810;9.012;2023-12-20T05:15:54;97084.00;;;5.10
8227;BMP180;4154;48.810;9.012;2023-12-20T05:18:21;97096.00;;;5.10
8227;BMP180;4154;48.810;9.012;2023-12-20T05:20:47;97088.00;;;5.20
8227;BMP180;4154;48.810;9.012;2023-12-20T05:23:12;97088.00;;;5.20
8227;BMP180;4154;48.810;9.012;2023-12-20T05:25:38;97080.00;;;5.20
8227;BMP180;4154;48.810;9.012;2023-12-20T05:28:04;97097.00;;;5.30
8227;BMP180;4154;48.810;9.012;2023-12-20T05:30:30;97101.00;;;5.30
8227;BMP180;4154;48.810;9.012;2023-12-20T05:32:56;97105.00;;;5.40
8227;BMP180;4154;48.810;9.012;2023-12-20T05:35:21;97104.00;;;5.40
8227;BMP180;4154;48.810;9.012;2023-12-20T05:37:49;97108.00;;;5.40
8227;BMP180;4154;48.810;9.012;2023-12-20T05:40:15;97115.00;;;5.40
8227;BMP180;4154;48.810;9.012;2023-12-20T05:42:41;97115.00;;;5.50
8227;BMP180;4154;48.810;9.012;2023-12-20T05:45:07;97118.00;;;5.50
8227;BMP180;4154;48.810;9.012;2023-12-20T05:47:32;97129.00;;;5.40
8227;BMP180;4154;48.810;9.012;2023-12-20T05:49:58;97127.00;;;5.40
8227;BMP180;4154;48.810;9.012;2023-12-20T05:52:24;97125.00;;;5.50
8227;BMP180;4154;48.810;9.012;2023-12-20T05:54:50;97125.00;;;5.50
8227;BMP180;4154;48.810;9.012;2023-12-20T05:57:16;97133.00;;;5.50
8227;BMP180;4154;48.810;9.012;2023-12-20T05:59:41;97145.00;;;5.50
8227;BMP180;4154;48.810;9.012;2023-12-20T06:02:07;97153.00;;;5.50
8227;BMP180;4154;48.810;9.012;2023-12-20T06:04:33;97146.00;;;5.50
8227;BMP180;4154;48.810;9.012;2023-12-20T06:06:58;97140.00;;;5.50
8227;BMP180;4154;48.810;9.012;2023-12-20T06:09:27;97149.00;;;5.50
8227;BMP180;4154;48.810;9.012;2023-12-20T06:11:52;97148.00;;;5.50
8227;BMP180;4154;48.810;9.012;2023-12-20T06:14:18;97154.00;;;5.50
8227;BMP180;4154;48.810;9.012;2023-12-20T06:16:45;97151.00;;;5.50
8227;BMP180;4154;48.810;9.012;2023-12-20T06:19:11;97154.00;;;5.50
8227;BMP180;4154;48.810;9.012;2023-12-20T06:21:36;97158.00;;;5.50
8227;BMP180;4154;48.810;9.012;2023-12-20T06:24:02;97160.00;;;5.50
8227;BMP180;4154;48.810;9.012;2023-12-20T06:26:28;97149.00;;;5.50
8227;BMP180;4154;48.810;9.012;2023-12-20T06:28:53;97160.00;;;5.60
8227;BMP180;4154;48.810;9.012;2023-12-20T06:31:19;97155.00;;;5.50
8227;BMP180;4154;48.810;9.012;2023-12-20T06:33:45;97158.00;;;5.50
8227;BMP180;4154;48.810;9.012;2023-12-20T06:36:14;97147.00;;;5.50
8227;BMP180;4154;48.810;9.012;2023-12-20T06:38:39;97148.00;;;5.50
8227;BMP180;4154;48.810;9.012;2023-12-20T06:41:06;97141.00;;;5.50
8227;BMP180;4154;48.810;9.012;2023-12-20T06:43:32;97159.00;;;5.50
8227;BMP180;4154;48.810;9.012;2023-12-20T06:46:00;97168.00;;;5.50
8227;BMP180;4154;48.810;9.012;2023-12-20T06:48:26;97173.00;;;5.40
8227;BMP180;4154;48.810;9.012;2023-12-20T06:50:52;97168.00;;;5.50
8227;BMP180;4154;48.810;9.012;2023-12-20T06:53:18;97166.00;;;5.40
8227;BMP180;4154;48.810;9.012;2023-12-20T06:55:43;97176.00;;;5.40
8227;BMP180;4154;48.810;9.012;2023-12-20T06:58:09;97177.00;;;5.40
8227;BMP180;4154;48.810;9.012;2023-12-20T07:00:34;97185.00;;;5.40
8227;BMP180;4154;48.810;9.012;2023-12-20T07:03:00;97186.00;;;5.40
8227;BMP180;4154;48.810;9.012;2023-12-20T07:05:26;97194.00;;;5.40
8227;BMP180;4154;48.810;9.012;2023-12-20T07:07:52;97189.00;;;5.40
8227;BMP180;4154;48.810;9.012;2023-12-20T07:10:18;97202.00;;;5.30
8227;BMP180;4154;48.810;9.012;2023-12-20T07:12:43;97211.00;;;5.20
8227;BMP180;4154;48.810;9.012;2023-12-20T07:15:10;97219.00;;;5.20
8227;BMP180;4154;48.810;9.012;2023-12-20T07:17:36;97231.00;;;5.20
8227;BMP180;4154;48.810;9.012;2023-12-20T07:20:01;97225.00;;;5.10
8227;BMP180;4154;48.810;9.012;2023-12-20T07:22:30;97234.00;;;5.10
8227;BMP180;4154;48.810;9.012;2023-12-20T07:25:00;97228.00;;;5.10
8227;BMP180;4154;48.810;9.012;2023-12-20T07:27:26;97236.00;;;5.20
8227;BMP180;4154;48.810;9.012;2023-12-20T07:29:52;97239.00;;;5.10
8227;BMP180;4154;48.810;9.012;2023-12-20T07:32:19;97253.00;;;5.00
8227;BMP180;4154;48.810;9.012;2023-12-20T07:34:44;97230.00;;;5.00
8227;BMP180;4154;48.810;9.012;2023-12-20T07:37:10;97232.00;;;5.00
8227;BMP180;4154;48.810;9.012;2023-12-20T07:39:39;97239.00;;;4.90
8227;BMP180;4154;48.810;9.012;2023-12-20T07:42:05;97241.00;;;5.00
8227;BMP180;4154;48.810;9.012;2023-12-20T07:44:31;97241.00;;;5.00
8227;BMP180;4154;48.810;9.012;2023-12-20T07:46:57;97240.00;;;4.90
8227;BMP180;4154;48.810;9.012;2023-12-20T07:49:23;97239.00;;;4.80
8227;BMP180;4154;48.810;9.012;2023-12-20T07:51:49;97237.00;;;4.80
8227;BMP180;4154;48.810;9.012;2023-12-20T07:54:15;97241.00;;;4.70
8227;BMP180;4154;48.810;9.012;2023-12-20T07:56:42;97233.00;;;4.70
8227;BMP180;4154;48.810;9.012;2023-12-20T07:59:07;97246.00;;;4.70
8227;BMP180;4154;48.810;9.012;2023-12-20T08:01:33;97239.00;;;4.60
8227;BMP180;4154;48.810;9.012;2023-12-20T08:03:59;97245.00;;;4.60
8227;BMP180;4154;48.810;9.012;2023-12-20T08:06:24;97252.00;;;4.70
8227;BMP180;4154;48.810;9.012;2023-12-20T08:08:50;97252.00;;;4.70
8227;BMP180;4154;48.810;9.012;2023-12-20T08:11:16;97255.00;;;4.60
8227;BMP180;4154;48.810;9.012;2023-12-20T08:13:41;97264.00;;;4.60
8227;BMP180;4154;48.810;9.012;2023-12-20T08:16:07;97253.00;;;4.60
8227;BMP180;4154;48.810;9.012;2023-12-20T08:18:33;97262.00;;;4.60
8227;BMP180;4154;48.810;9.012;2023-12-20T08:20:59;97259.00;;;4.60
8227;BMP180;4154;48.810;9.012;2023-12-20T08:23:25;97263.00;;;4.60
8227;BMP180;4154;48.810;9.012;2023-12-20T08:25:51;97265.00;;;4.50
8227;BMP180;4154;48.810;9.012;2023-12-20T08:28:16;97277.00;;;4.50
8227;BMP180;4154;48.810;9.012;2023-12-20T08:30:42;97272.00;;;4.50
8227;BMP180;4154;48.810;9.012;2023-12-20T08:33:08;97261.00;;;4.40
8227;BMP180;4154;48.810;9.012;2023-12-20T08:35:41;97261.00;;;4.50
8227;BMP180;4154;48.810;9.012;2023-12-20T08:38:07;97273.00;;;4.50
8227;BMP180;4154;48.810;9.012;2023-12-20T08:40:32;97260.00;;;4.40
8227;BMP180;4154;48.810;9.012;2023-12-20T08:42:58;97277.00;;;4.40
8227;BMP180;4154;48.810;9.012;2023-12-20T08:45:24;97280.00;;;4.40
8227;BMP180;4154;48.810;9.012;2023-12-20T08:47:50;97275.00;;;4.40
8227;BMP180;4154;48.810;9.012;2023-12-20T08:50:15;97279.00;;;4.40
8227;BMP180;4154;48.810;9.012;2023-12-20T08:52:41;97283.00;;;4.40
8227;BMP180;4154;48.810;9.012;2023-12-20T08:55:08;97273.00;;;4.40
8227;BMP180;4154;48.810;9.012;2023-12-20T08:57:33;97274.00;;;4.40
8227;BMP180;4154;48.810;9.012;2023-12-20T08:59:59;97300.00;;;4.50
8227;BMP180;4154;48.810;9.012;2023-12-20T09:02:25;97294.00;;;4.50
8227;BMP180;4154;48.810;9.012;2023-12-20T09:04:50;97274.00;;;4.50
8227;BMP180;4154;48.810;9.012;2023-12-20T09:07:26;97286.00;;;4.50
8227;BMP180;4154;48.810;9.012;2023-12-20T09:09:53;97282.00;;;4.50
8227;BMP180;4154;48.810;9.012;2023-12-20T09:12:19;97276.00;;;4.50
8227;BMP180;4154;48.810;9.012;2023-12-20T09:14:50;97267.00;;;4.50
8227;BMP180;4154;48.810;9.012;2023-12-20T09:17:16;97275.00;;;4.50
8227;BMP180;4154;48.810;9.012;2023-12-20T09:19:44;97274.00;;;4.60
8227;BMP180;4154;48.810;9.012;2023-12-20T09:22:10;97274.00;;;4.50
8227;BMP180;4154;48.810;9.012;2023-12-20T09:24:36;97273.00;;;4.60
8227;BMP180;4154;48.810;9.012;2023-12-20T09:27:02;97280.00;;;4.60
8227;BMP180;4154;48.810;9.012;2023-12-20T09:29:29;97270.00;;;4.70
8227;BMP180;4154;48.810;9.012;2023-12-20T09:31:54;97264.00;;;4.60
8227;BMP180;4154;48.810;9.012;2023-12-20T09:34:20;97266.00;;;4.70
8227;BMP180;4154;48.810;9.012;2023-12-20T09:36:46;97286.00;;;4.70
8227;BMP180;4154;48.810;9.012;2023-12-20T09:39:18;97286.00;;;4.80
8227;BMP180;4154;48.810;9.012;2023-12-20T09:41:51;97298.00;;;4.80
8227;BMP180;4154;48.810;9.012;2023-12-20T09:44:21;97288.00;;;4.90
8227;BMP180;4154;48.810;9.012;2023-12-20T09:46:50;97295.00;;;4.80
8227;BMP180;4154;48.810;9.012;2023-12-20T09:49:19;97296.00;;;4.80
8227;BMP180;4154;48.810;9.012;2023-12-20T09:51:46;97292.00;;;5.00
8227;BMP180;4154;48.810;9.012;2023-12-20T09:54:18;97302.00;;;4.70
8227;BMP180;4154;48.810;9.012;2023-12-20T09:56:44;97286.00;;;4.80
8227;BMP180;4154;48.810;9.012;2023-12-20T09:59:10;97311.00;;;4.90
8227;BMP180;4154;48.810;9.012;2023-12-20T10:01:41;97301.00;;;4.90
8227;BMP180;4154;48.810;9.012;2023-12-20T10:04:10;97290.00;;;4.90
8227;BMP180;4154;48.810;9.012;2023-12-20T10:06:42;97284.00;;;4.90
8227;BMP180;4154;48.810;9.012;2023-12-20T10:09:09;97293.00;;;4.90
8227;BMP180;4154;48.810;9.012;2023-12-20T10:11:37;97298.00;;;4.90
8227;BMP180;4154;48.810;9.012;2023-12-20T10:14:04;97296.00;;;4.90
8227;BMP180;4154;48.810;9.012;2023-12-20T10:16:31;97289.00;;;4.90
8227;BMP180;4154;48.810;9.012;2023-12-20T10:18:59;97291.00;;;4.90
8227;BMP180;4154;48.810;9.012;2023-12-20T10:21:26;97288.00;;;4.90
8227;BMP180;4154;48.810;9.012;2023-12-20T10:23:56;97297.00;;;4.90
8227;BMP180;4154;48.810;9.012;2023-12-20T10:26:26;97283.00;;;4.90
8227;BMP180;4154;48.810;9.012;2023-12-20T10:29:00;97283.00;;;4.90
8227;BMP180;4154;48.810;9.012;2023-12-20T10:31:33;97281.00;;;4.90
8227;BMP180;4154;48.810;9.012;2023-12-20T10:34:02;97283.00;;;4.90
8227;BMP180;4154;48.810;9.012;2023-12-20T10:36:32;97278.00;;;5.00
8227;BMP180;4154;48.810;9.012;2023-12-20T10:39:02;97286.00;;;5.00
8227;BMP180;4154;48.810;9.012;2023-12-20T10:41:32;97290.00;;;5.10
8227;BMP180;4154;48.810;9.012;2023-12-20T10:44:04;97283.00;;;5.00
8227;BMP180;4154;48.810;9.012;2023-12-20T10:46:34;97279.00;;;5.20
8227;BMP180;4154;48.810;9.012;2023-12-20T10:49:02;97269.00;;;5.10
8227;BMP180;4154;48.810;9.012;2023-12-20T10:51:30;97274.00;;;5.20
8227;BMP180;4154;48.810;9.012;2023-12-20T10:53:56;97260.00;;;5.20
8227;BMP180;4154;48.810;9.012;2023-12-20T10:56:23;97258.00;;;5.20
8227;BMP180;4154;48.810;9.012;2023-12-20T10:58:51;97266.00;;;5.20
8227;BMP180;4154;48.810;9.012;2023-12-20T11:01:18;97263.00;;;5.20
8227;BMP180;4154;48.810;9.012;2023-12-20T11:03:53;97270.00;;;5.20
8227;BMP180;4154;48.810;9.012;2023-12-20T11:06:47;97264.00;;;5.20
8227;BMP180;4154;48.810;9.012;2023-12-20T11:09:31;97268.00;;;5.20
8227;BMP180;4154;48.810;9.012;2023-12-20T11:12:26;97265.00;;;5.10
8227;BMP180;4154;48.810;9.012;2023-12-20T11:14:55;97258.00;;;5.20
8227;BMP180;4154;48.810;9.012;2023-12-20T11:17:22;97264.00;;;5.20
8227;BMP180;4154;48.810;9.012;2023-12-20T11:22:20;97241.00;;;5.20
8227;BMP180;4154;48.810;9.012;2023-12-20T11:24:47;97252.00;;;5.20
8227;BMP180;4154;48.810;9.012;2023-12-20T11:27:14;97264.00;;;5.30
8227;BMP180;4154;48.810;9.012;2023-12-20T11:29:41;97257.00;;;5.30
8227;BMP180;4154;48.810;9.012;2023-12-20T11:34:59;97260.00;;;5.20
8227;BMP180;4154;48.810;9.012;2023-12-20T11:37:35;97255.00;;;5.20
8227;BMP180;4154;48.810;9.012;2023-12-20T11:40:14;97238.00;;;5.20
8227;BMP180;4154;48.810;9.012;2023-12-20T11:42:41;97247.00;;;5.20
8227;BMP180;4154;48.810;9.012;2023-12-20T11:45:13;97255.00;;;5.10
8227;BMP180;4154;48.810;9.012;2023-12-20T11:47:45;97263.00;;;5.10
8227;BMP180;4154;48.810;9.012;2023-12-20T11:50:12;97257.00;;;5.20
8227;BMP180;4154;48.810;9.012;2023-12-20T11:52:38;97245.00;;;5.20
8227;BMP180;4154;48.810;9.012;2023-12-20T11:55:04;97241.00;;;5.20
8227;BMP180;4154;48.810;9.012;2023-12-20T11:57:31;97222.00;;;5.20
8227;BMP180;4154;48.810;9.012;2023-12-20T11:59:56;97231.00;;;5.20
8227;BMP180;4154;48.810;9.012;2023-12-20T12:02:22;97227.00;;;5.30
8227;BMP180;4154;48.810;9.012;2023-12-20T12:04:49;97217.00;;;5.30
8227;BMP180;4154;48.810;9.012;2023-12-20T12:07:18;97222.00;;;5.40
8227;BMP180;4154;48.810;9.012;2023-12-20T12:09:45;97219.00;;;5.50
8227;BMP180;4154;48.810;9.012;2023-12-20T12:12:12;97213.00;;;5.50
8227;BMP180;4154;48.810;9.012;2023-12-20T12:14:38;97193.00;;;5.50
8227;BMP180;4154;48.810;9.012;2023-12-20T12:17:13;97212.00;;;5.50
8227;BMP180;4154;48.810;9.012;2023-12-20T12:19:41;97211.00;;;5.50
8227;BMP180;4154;48.810;9.012;2023-12-20T12:22:13;97203.00;;;5.50
8227;BMP180;4154;48.810;9.012;2023-12-20T12:24:44;97201.00;;;5.60
8227;BMP180;4154;48.810;9.012;2023-12-20T12:27:11;97202.00;;;5.50
8227;BMP180;4154;48.810;9.012;2023-12-20T12:29:37;97195.00;;;5.60
8227;BMP180;4154;48.810;9.012;2023-12-20T12:32:08;97200.00;;;5.50
8227;BMP180;4154;48.810;9.012;2023-12-20T12:34:35;97196.00;;;5.60
8227;BMP180;4154;48.810;9.012;2023-12-20T12:37:02;97213.00;;;5.60
8227;BMP180;4154;48.810;9.012;2023-12-20T12:39:29;97202.00;;;5.50
8227;BMP180;4154;48.810;9.012;2023-12-20T12:41:56;97203.00;;;5.50
8227;BMP180;4154;48.810;9.012;2023-12-20T12:44:23;97198.00;;;5.50
8227;BMP180;4154;48.810;9.012;2023-12-20T12:46:52;97197.00;;;5.50
8227;BMP180;4154;48.810;9.012;2023-12-20T12:49:20;97206.00;;;5.50
8227;BMP180;4154;48.810;9.012;2023-12-20T12:51:47;97208.00;;;5.40
8227;BMP180;4154;48.810;9.012;2023-12-20T12:54:12;97198.00;;;5.50
8227;BMP180;4154;48.810;9.012;2023-12-20T12:56:39;97200.00;;;5.50
8227;BMP180;4154;48.810;9.012;2023-12-20T12:59:05;97201.00;;;5.50
8227;BMP180;4154;48.810;9.012;2023-12-20T13:01:31;97208.00;;;5.50
8227;BMP180;4154;48.810;9.012;2023-12-20T13:03:57;97204.00;;;5.50
8227;BMP180;4154;48.810;9.012;2023-12-20T13:06:23;97182.00;;;5.40
8227;BMP180;4154;48.810;9.012;2023-12-20T13:08:49;97194.00;;;5.40
8227;BMP180;4154;48.810;9.012;2023-12-20T13:11:15;97195.00;;;5.40
8227;BMP180;4154;48.810;9.012;2023-12-20T13:13:41;97194.00;;;5.40
8227;BMP180;4154;48.810;9.012;2023-12-20T13:16:07;97192.00;;;5.30
8227;BMP180;4154;48.810;9.012;2023-12-20T13:18:33;97203.00;;;5.40
8227;BMP180;4154;48.810;9.012;2023-12-20T13:20:58;97195.00;;;5.30
8227;BMP180;4154;48.810;9.012;2023-12-20T13:23:24;97190.00;;;5.40
8227;BMP180;4154;48.810;9.012;2023-12-20T13:25:50;97188.00;;;5.40
8227;BMP180;4154;48.810;9.012;2023-12-20T13:28:15;97192.00;;;5.40
8227;BMP180;4154;48.810;9.012;2023-12-20T13:30:41;97195.00;;;5.40
8227;BMP180;4154;48.810;9.012;2023-12-20T13:33:07;97187.00;;;5.50
8227;BMP180;4154;48.810;9.012;2023-12-20T13:35:34;97218.00;;;5.40
8227;BMP180;4154;48.810;9.012;2023-12-20T13:38:00;97208.00;;;5.40
8227;BMP180;4154;48.810;9.012;2023-12-20T13:40:26;97201.00;;;5.40
8227;BMP180;4154;48.810;9.012;2023-12-20T13:42:52;97191.00;;;5.40
8227;BMP180;4154;48.810;9.012;2023-12-20T13:45:18;97199.00;;;5.40
8227;BMP180;4154;48.810;9.012;2023-12-20T13:47:43;97208.00;;;5.40
8227;BMP180;4154;48.810;9.012;2023-12-20T13:50:09;97204.00;;;5.30
8227;BMP180;4154;48.810;9.012;2023-12-20T13:52:35;97196.00;;;5.20
8227;BMP180;4154;48.810;9.012;2023-12-20T13:55:02;97197.00;;;5.20
8227;BMP180;4154;48.810;9.012;2023-12-20T13:57:27;97202.00;;;5.20
8227;BMP180;4154;48.810;9.012;2023-12-20T13:59:55;97189.00;;;5.30
8227;BMP180;4154;48.810;9.012;2023-12-20T14:02:22;97187.00;;;5.20
8227;BMP180;4154;48.810;9.012;2023-12-20T14:04:48;97193.00;;;5.30
8227;BMP180;4154;48.810;9.012;2023-12-20T14:07:13;97183.00;;;5.20
8227;BMP180;4154;48.810;9.012;2023-12-20T14:09:40;97180.00;;;5.20
8227;BMP180;4154;48.810;9.012;2023-12-20T14:12:13;97179.00;;;5.20
8227;BMP180;4154;48.810;9.012;2023-12-20T14:14:39;97177.00;;;5.20
8227;BMP180;4154;48.810;9.012;2023-12-20T14:17:05;97176.00;;;5.20
8227;BMP180;4154;48.810;9.012;2023-12-20T14:19:34;97164.00;;;5.10
8227;BMP180;4154;48.810;9.012;2023-12-20T14:22:00;97156.00;;;5.30
8227;BMP180;4154;48.810;9.012;2023-12-20T14:24:29;97156.00;;;5.20
8227;BMP180;4154;48.810;9.012;2023-12-20T14:26:55;97148.00;;;5.10
8227;BMP180;4154;48.810;9.012;2023-12-20T14:29:21;97164.00;;;5.10
8227;BMP180;4154;48.810;9.012;2023-12-20T14:31:46;97163.00;;;5.00
8227;BMP180;4154;48.810;9.012;2023-12-20T14:34:13;97162.00;;;5.00
8227;BMP180;4154;48.810;9.012;2023-12-20T14:36:38;97161.00;;;4.90
8227;BMP180;4154;48.810;9.012;2023-12-20T14:39:04;97167.00;;;5.00
8227;BMP180;4154;48.810;9.012;2023-12-20T14:41:31;97166.00;;;5.00
8227;BMP180;4154;48.810;9.012;2023-12-20T14:43:56;97175.00;;;5.00
8227;BMP180;4154;48.810;9.012;2023-12-20T14:46:22;97174.00;;;5.00
8227;BMP180;4154;48.810;9.012;2023-12-20T14:48:47;97161.00;;;5.00
8227;BMP180;4154;48.810;9.012;2023-12-20T14:51:14;97169.00;;;5.00